Time;durP1;ratioP1;P1;durP2;ratioP2;P2;SDS_P1;SDS_P2;PMS_P1;PMS_P2;Temp;Humidity;BMP_temperature;BMP_pressure;BME280_temperature;BME280_humidity;BME280_pressure;Samples;Min_cycle;Max_cycle;Signal;HPM_P1;HPM_P2
2023/02/13 00:00:27;;;;;;;82.97;18.58;;;0.00;1.00;;;;;;5072132;28;20209;-62
2023/02/13 00:02:53;;;;;;;78.45;17.70;;;0.00;1.00;;;;;;5072220;28;20205;-62
2023/02/13 00:05:20;;;;;;;90.38;21.35;;;0.00;1.00;;;;;;5072023;28;20242;-63
2023/02/13 00:07:47;;;;;;;85.80;20.98;;;0.00;1.00;;;;;;5071951;28;20202;-62
2023/02/13 00:10:14;;;;;;;81.90;19.05;;;0.00;1.00;;;;;;5071546;28;20229;-62
2023/02/13 00:12:41;;;;;;;79.60;18.10;;;-0.10;1.00;;;;;;5072150;28;20211;-62
2023/02/13 00:15:09;;;;;;;82.38;19.55;;;-0.10;1.00;;;;;;5071965;28;20595;-62
2023/02/13 00:17:37;;;;;;;79.75;17.63;;;-0.10;1.00;;;;;;5071858;28;20217;-66
2023/02/13 00:20:05;;;;;;;79.93;19.00;;;-0.10;1.00;;;;;;5071538;28;20223;-62
2023/02/13 00:22:35;;;;;;;82.65;18.98;;;-0.20;1.00;;;;;;5071749;28;20212;-62
2023/02/13 00:25:02;;;;;;;88.75;20.83;;;-0.30;1.00;;;;;;5071632;28;20233;-62
2023/02/13 00:27:29;;;;;;;86.55;19.42;;;-0.30;1.00;;;;;;5072012;28;20207;-62
2023/02/13 00:29:56;;;;;;;84.78;20.05;;;-0.30;1.00;;;;;;5071651;28;20209;-62
2023/02/13 00:32:22;;;;;;;93.30;24.23;;;-0.20;1.00;;;;;;5071726;28;20212;-63
2023/02/13 00:34:50;;;;;;;84.47;21.13;;;-0.20;1.00;;;;;;5071711;28;20628;-62
2023/02/13 00:37:17;;;;;;;85.05;21.58;;;-0.30;1.00;;;;;;5071595;28;20223;-62
2023/02/13 00:39:44;;;;;;;96.18;25.38;;;-0.40;1.00;;;;;;5075196;28;20210;-62
2023/02/13 00:42:11;;;;;;;94.30;27.80;;;-0.40;1.00;;;;;;5078538;28;20409;-62
2023/02/13 00:44:37;;;;;;;87.30;20.88;;;-0.50;1.00;;;;;;5078384;28;20234;-62
2023/02/13 00:47:04;;;;;;;82.47;20.35;;;-0.40;1.00;;;;;;5078360;28;20205;-62
2023/02/13 00:49:31;;;;;;;88.38;18.58;;;-0.40;1.00;;;;;;5078026;28;20216;-62
2023/02/13 00:51:59;;;;;;;92.95;22.77;;;-0.50;1.00;;;;;;5078094;28;20207;-62
2023/02/13 00:54:26;;;;;;;88.03;21.45;;;-0.40;1.00;;;;;;5078064;28;20228;-62
2023/02/13 00:56:53;;;;;;;83.40;20.40;;;-0.50;1.00;;;;;;5078101;28;20209;-62
2023/02/13 01:00:07;;;;;;;88.15;22.65;;;-0.50;1.00;;;;;;5077859;28;20248;-62
2023/02/13 01:02:35;;;;;;;87.45;21.45;;;-0.50;1.00;;;;;;5077055;28;20209;-62
2023/02/13 01:05:01;;;;;;;89.63;23.23;;;-0.50;1.00;;;;;;5078195;28;20379;-62
2023/02/13 01:07:29;;;;;;;89.13;21.92;;;-0.50;1.00;;;;;;5078190;28;20205;-63
2023/02/13 01:09:56;;;;;;;83.95;21.58;;;-0.50;1.00;;;;;;5077536;28;20596;-63
2023/02/13 01:12:23;;;;;;;87.00;22.15;;;-0.50;1.00;;;;;;5077981;28;20594;-62
2023/02/13 01:14:51;;;;;;;87.20;22.17;;;-0.60;1.00;;;;;;5077928;28;20294;-63
2023/02/13 01:17:18;;;;;;;86.07;20.40;;;-0.60;1.00;;;;;;5078246;28;20343;-62
2023/02/13 01:19:44;;;;;;;90.50;23.13;;;-0.60;1.00;;;;;;5077629;28;20203;-63
2023/02/13 01:22:11;;;;;;;87.70;21.05;;;-0.60;1.00;;;;;;5078129;28;20570;-62
2023/02/13 01:24:39;;;;;;;88.10;24.17;;;-0.50;1.00;;;;;;5077822;28;20236;-62
2023/02/13 01:27:06;;;;;;;85.05;20.35;;;-0.50;1.00;;;;;;5077637;28;20211;-62
2023/02/13 01:29:33;;;;;;;85.90;22.02;;;-0.50;1.00;;;;;;5077153;28;20666;-62
2023/02/13 01:32:01;;;;;;;84.28;20.67;;;-0.60;1.00;;;;;;5078053;28;20647;-62
2023/02/13 01:34:28;;;;;;;82.93;20.13;;;-0.60;1.00;;;;;;5077795;28;20230;-62
2023/02/13 01:36:55;;;;;;;85.30;22.80;;;-0.70;1.00;;;;;;5077996;28;20213;-63
2023/02/13 01:39:22;;;;;;;84.22;20.50;;;-0.60;1.00;;;;;;5077378;28;20237;-62
2023/02/13 01:41:50;;;;;;;84.75;20.45;;;-0.60;1.00;;;;;;5077449;28;20209;-62
2023/02/13 01:44:46;;;;;;;84.60;21.88;;;-0.60;1.00;;;;;;5077426;28;20612;-62
2023/02/13 01:47:15;;;;;;;85.43;19.60;;;-0.70;1.00;;;;;;5078172;28;20404;-62
2023/02/13 01:49:44;;;;;;;82.90;19.42;;;-0.70;1.00;;;;;;5077461;28;20699;-62
2023/02/13 01:52:12;;;;;;;82.75;19.27;;;-0.70;1.00;;;;;;5073719;28;20591;-62
2023/02/13 01:54:40;;;;;;;81.10;18.48;;;-0.70;1.00;;;;;;5074385;28;20656;-62
2023/02/13 01:57:12;;;;;;;78.45;18.30;;;-0.70;1.00;;;;;;5074485;28;20205;-62
2023/02/13 01:59:46;;;;;;;80.90;18.33;;;-0.70;1.00;;;;;;5074217;28;20204;-62
2023/02/13 02:02:13;;;;;;;78.50;18.25;;;-0.80;1.00;;;;;;5074312;28;20206;-62
2023/02/13 02:04:42;;;;;;;89.75;20.02;;;-0.90;1.00;;;;;;5074274;28;20225;-62
2023/02/13 02:07:14;;;;;;;80.90;19.20;;;-0.80;1.00;;;;;;5074552;28;20207;-62
2023/02/13 02:09:44;;;;;;;91.40;21.42;;;-0.80;1.00;;;;;;5073777;28;20211;-62
2023/02/13 02:12:19;;;;;;;85.40;21.13;;;-0.80;1.00;;;;;;5074113;28;20209;-63
2023/02/13 02:14:47;;;;;;;88.72;22.65;;;-0.90;1.00;;;;;;5074082;28;20230;-62
2023/02/13 02:17:14;;;;;;;85.75;21.08;;;-0.90;1.00;;;;;;5074064;28;20201;-62
2023/02/13 02:19:46;;;;;;;81.72;20.63;;;-0.90;1.00;;;;;;5073594;28;20383;-62
2023/02/13 02:22:34;;;;;;;84.70;20.63;;;-0.90;1.00;;;;;;5074216;28;20209;-62
2023/02/13 02:25:20;;;;;;;87.30;22.20;;;-1.00;1.00;;;;;;5073799;28;20229;-62
2023/02/13 02:28:10;;;;;;;93.53;24.98;;;-1.00;1.00;;;;;;5073873;28;20237;-62
2023/02/13 02:31:11;;;;;;;83.30;20.67;;;-1.00;1.00;;;;;;5073565;28;20678;-62
2023/02/13 02:33:50;;;;;;;87.68;21.20;;;-1.00;1.00;;;;;;5048656;28;20283;-62
2023/02/13 02:36:35;;;;;;;84.63;21.42;;;-1.00;1.00;;;;;;5073670;28;20216;-62
2023/02/13 02:39:10;;;;;;;85.10;21.35;;;-1.00;1.00;;;;;;5073445;28;20232;-62
2023/02/13 02:41:51;;;;;;;85.95;23.67;;;-1.00;1.00;;;;;;5073719;28;20299;-62
2023/02/13 02:44:31;;;;;;;89.50;22.23;;;-1.10;1.00;;;;;;5073562;28;20232;-62
2023/02/13 02:50:00;;;;;;;89.85;27.48;;;-1.10;1.00;;;;;;5073228;28;20201;-62
2023/02/13 02:52:39;;;;;;;90.70;23.92;;;-1.10;1.00;;;;;;5073523;28;20209;-62
2023/02/13 02:55:12;;;;;;;79.65;19.98;;;-1.00;1.00;;;;;;5073175;28;20227;-62
2023/02/13 03:06:12;;;;;;;81.35;19.20;;;-1.00;1.00;;;;;;5073163;28;20677;-62
2023/02/13 03:14:14;;;;;;;83.47;18.55;;;-1.10;1.00;;;;;;5073453;28;20228;-62
2023/02/13 03:22:33;;;;;;;86.57;19.10;;;-1.10;1.00;;;;;;5072831;28;20209;-63
2023/02/13 03:25:08;;;;;;;82.40;20.40;;;-1.20;1.00;;;;;;5073008;28;20237;-63
2023/02/13 03:30:37;;;;;;;81.13;17.52;;;-1.20;1.00;;;;;;5072588;28;20286;-62
2023/02/13 03:33:21;;;;;;;77.00;17.02;;;-1.40;1.00;;;;;;5072791;28;20204;-62
2023/02/13 03:38:44;;;;;;;85.50;19.92;;;-1.40;1.00;;;;;;5072162;28;20243;-62
2023/02/13 03:41:20;;;;;;;81.30;18.30;;;-1.30;1.00;;;;;;5072440;28;20200;-62
2023/02/13 03:43:58;;;;;;;80.50;18.33;;;-1.40;1.00;;;;;;5072573;28;20200;-62
2023/02/13 03:46:26;;;;;;;80.47;18.40;;;-1.30;1.00;;;;;;5072508;28;20215;-62
2023/02/13 03:51:43;;;;;;;78.18;18.35;;;-1.30;1.00;;;;;;5072308;28;20220;-62
2023/02/13 03:54:19;;;;;;;83.55;18.38;;;-1.30;1.00;;;;;;5072359;28;20232;-62
2023/02/13 03:59:36;;;;;;;84.55;18.48;;;-1.40;1.00;;;;;;5071948;28;20333;-62
2023/02/13 04:02:10;;;;;;;87.03;19.10;;;-1.30;1.00;;;;;;5072033;28;20209;-62
2023/02/13 04:04:45;;;;;;;84.30;19.65;;;-1.30;1.00;;;;;;5072269;28;20246;-63
2023/02/13 04:07:28;;;;;;;78.07;17.30;;;-1.40;1.00;;;;;;5072279;28;20216;-62
2023/02/13 04:09:58;;;;;;;78.90;16.27;;;-1.40;1.00;;;;;;5071711;28;20665;-62
2023/02/13 04:12:33;;;;;;;82.72;20.30;;;-1.40;1.00;;;;;;5072033;28;20563;-62
2023/02/13 04:15:04;;;;;;;78.55;16.88;;;-1.50;1.00;;;;;;5071386;28;20234;-62
2023/02/13 04:17:35;;;;;;;79.20;17.85;;;-1.50;1.00;;;;;;5072112;28;20205;-62
2023/02/13 04:20:03;;;;;;;82.13;17.55;;;-1.40;1.00;;;;;;5071471;28;20719;-62
2023/02/13 04:22:30;;;;;;;79.45;17.58;;;-1.50;1.00;;;;;;5071887;28;20207;-63
2023/02/13 04:24:58;;;;;;;80.90;17.38;;;-1.50;1.00;;;;;;5071578;28;20229;-62
2023/02/13 04:27:27;;;;;;;77.80;16.52;;;-1.50;1.00;;;;;;5071998;28;20211;-62
2023/02/13 04:29:53;;;;;;;78.38;16.75;;;-1.50;1.00;;;;;;5071624;28;20205;-62
2023/02/13 04:32:20;;;;;;;81.85;17.30;;;-1.50;1.00;;;;;;5071884;28;20208;-62
2023/02/13 04:34:47;;;;;;;84.97;18.27;;;-1.50;1.00;;;;;;5071675;28;20231;-62
2023/02/13 04:37:14;;;;;;;82.90;17.85;;;-1.50;1.00;;;;;;5071732;28;20213;-62
2023/02/13 04:39:41;;;;;;;86.93;18.38;;;-1.50;1.00;;;;;;5071353;28;20224;-63
2023/02/13 04:42:09;;;;;;;81.25;19.77;;;-1.50;1.00;;;;;;5071928;28;20595;-63
2023/02/13 04:44:35;;;;;;;79.45;16.70;;;-1.60;1.00;;;;;;5071900;28;20229;-62
2023/02/13 04:47:02;;;;;;;82.60;17.92;;;-1.60;1.00;;;;;;5071818;28;20205;-63
2023/02/13 04:49:29;;;;;;;79.07;16.15;;;-1.60;1.00;;;;;;5071283;28;20207;-62
2023/02/13 04:51:56;;;;;;;80.35;16.65;;;-1.60;1.00;;;;;;5071493;28;20215;-62
2023/02/13 04:54:22;;;;;;;80.90;17.33;;;-1.60;1.00;;;;;;5071696;28;20221;-62
2023/02/13 04:56:49;;;;;;;79.78;17.30;;;-1.60;1.00;;;;;;5071530;28;20210;-63
2023/02/13 04:59:17;;;;;;;84.72;19.83;;;-1.60;1.00;;;;;;5071320;28;20251;-63
2023/02/13 05:01:44;;;;;;;79.22;19.08;;;-1.60;1.00;;;;;;5071649;28;20201;-62
2023/02/13 05:04:15;;;;;;;82.50;19.02;;;-1.60;1.00;;;;;;5071382;28;20228;-62
2023/02/13 05:06:41;;;;;;;77.40;18.50;;;-1.60;1.00;;;;;;5071725;28;20228;-63
2023/02/13 05:09:09;;;;;;;84.13;19.58;;;-1.60;1.00;;;;;;5071066;28;20203;-63
2023/02/13 05:11:36;;;;;;;84.65;18.15;;;-1.60;1.00;;;;;;5071340;28;20227;-62
2023/02/13 05:14:03;;;;;;;78.10;17.92;;;-1.60;1.00;;;;;;5071352;28;20665;-62
2023/02/13 05:16:31;;;;;;;77.28;16.88;;;-1.60;1.00;;;;;;5071318;28;20700;-62
2023/02/13 05:18:58;;;;;;;80.10;17.90;;;-1.60;1.00;;;;;;5070812;28;20225;-63
2023/02/13 05:24:09;;;;;;;80.70;16.88;;;-1.70;1.00;;;;;;5071055;28;20308;-62
2023/02/13 05:26:36;;;;;;;82.95;17.42;;;-1.70;1.00;;;;;;5072832;28;20212;-62
2023/02/13 05:29:21;;;;;;;80.00;16.25;;;-1.70;1.00;;;;;;5074557;28;20685;-63
2023/02/13 05:31:51;;;;;;;79.35;16.75;;;-1.70;1.00;;;;;;5075207;28;20266;-63
2023/02/13 05:34:19;;;;;;;77.03;17.48;;;-1.70;1.00;;;;;;5074799;28;20229;-62
2023/02/13 05:36:46;;;;;;;80.50;16.77;;;-1.80;1.00;;;;;;5075128;28;20205;-63
2023/02/13 05:39:14;;;;;;;81.93;17.48;;;-1.70;1.00;;;;;;5074537;28;20232;-62
2023/02/13 05:41:40;;;;;;;84.50;17.92;;;-1.70;1.00;;;;;;5074757;28;20213;-63
2023/02/13 05:44:08;;;;;;;79.00;17.58;;;-1.70;1.00;;;;;;5075065;28;20225;-62
2023/02/13 05:46:34;;;;;;;83.35;20.42;;;-1.70;1.00;;;;;;5074683;28;20205;-62
2023/02/13 05:49:02;;;;;;;80.35;16.42;;;-1.70;1.00;;;;;;5074512;28;20228;-62
2023/02/13 05:51:29;;;;;;;79.43;18.27;;;-1.70;1.00;;;;;;5074627;28;20693;-62
2023/02/13 05:53:56;;;;;;;79.82;17.83;;;-1.70;1.00;;;;;;5074561;28;20228;-63
2023/02/13 05:56:23;;;;;;;79.80;17.85;;;-1.60;1.00;;;;;;5074407;28;20219;-62
2023/02/13 05:58:51;;;;;;;79.57;18.15;;;-1.60;1.00;;;;;;5074064;28;20711;-63
2023/02/13 06:01:18;;;;;;;86.00;20.02;;;-1.60;1.00;;;;;;5074643;28;20201;-62
2023/02/13 06:03:45;;;;;;;79.65;17.77;;;-1.70;1.00;;;;;;5074577;28;20479;-62
2023/02/13 06:06:14;;;;;;;87.03;19.50;;;-1.70;1.00;;;;;;5074430;28;20556;-62
2023/02/13 06:08:40;;;;;;;89.18;19.85;;;-1.80;1.00;;;;;;5073983;28;20205;-62
2023/02/13 06:11:09;;;;;;;88.65;20.05;;;-1.70;1.00;;;;;;5074121;28;20205;-63
2023/02/13 06:13:39;;;;;;;91.30;19.55;;;-1.70;1.00;;;;;;5074368;28;20208;-62
2023/02/13 06:16:06;;;;;;;90.90;20.58;;;-1.70;1.00;;;;;;5074042;28;20215;-62
2023/02/13 06:18:33;;;;;;;85.85;18.33;;;-1.70;1.00;;;;;;5073811;28;20237;-63
2023/02/13 06:21:00;;;;;;;92.47;21.00;;;-1.60;1.00;;;;;;5074158;28;20209;-63
2023/02/13 06:23:28;;;;;;;94.18;20.77;;;-1.60;1.00;;;;;;5074045;28;20213;-62
2023/02/13 06:25:55;;;;;;;87.75;18.80;;;-1.60;1.00;;;;;;5074162;28;20211;-62
2023/02/13 06:28:23;;;;;;;87.93;19.98;;;-1.60;1.00;;;;;;5073834;28;20226;-62
2023/02/13 06:30:50;;;;;;;95.00;24.23;;;-1.60;1.00;;;;;;5073761;28;20205;-64
2023/02/13 06:33:16;;;;;;;95.45;21.40;;;-1.60;1.00;;;;;;5073671;28;20209;-64
2023/02/13 06:35:43;;;;;;;88.22;21.27;;;-1.60;1.00;;;;;;5073619;28;20233;-63
2023/02/13 06:38:10;;;;;;;90.72;18.98;;;-1.60;1.00;;;;;;5072927;28;20209;-63
2023/02/13 06:40:38;;;;;;;97.35;20.70;;;-1.70;1.00;;;;;;5073282;28;20231;-63
2023/02/13 06:43:05;;;;;;;107.82;23.00;;;-1.70;1.00;;;;;;5073674;28;20212;-63
2023/02/13 06:45:32;;;;;;;101.68;20.83;;;-1.60;1.00;;;;;;5073638;28;20225;-63
2023/02/13 06:47:59;;;;;;;92.82;20.95;;;-1.60;1.00;;;;;;5073911;28;20208;-63
2023/02/13 06:50:26;;;;;;;93.85;21.75;;;-1.60;1.00;;;;;;5073232;28;20207;-63
2023/02/13 06:52:53;;;;;;;94.22;21.67;;;-1.60;1.00;;;;;;5073303;28;20239;-63
2023/02/13 06:55:20;;;;;;;105.10;21.20;;;-1.60;1.00;;;;;;5073877;28;20311;-63
2023/02/13 06:57:49;;;;;;;93.07;20.42;;;-1.60;1.00;;;;;;5073309;28;20681;-63
2023/02/13 07:00:16;;;;;;;90.93;20.83;;;-1.60;1.00;;;;;;5072895;28;20594;-63
2023/02/13 07:02:45;;;;;;;93.07;21.60;;;-1.60;1.00;;;;;;5073101;28;20213;-63
2023/02/13 07:05:12;;;;;;;90.35;20.77;;;-1.60;1.00;;;;;;5072943;28;20222;-64
2023/02/13 07:07:40;;;;;;;89.75;18.83;;;-1.60;1.00;;;;;;5073159;28;20295;-63
2023/02/13 07:10:09;;;;;;;94.25;23.58;;;-1.70;1.00;;;;;;5072944;28;20208;-63
2023/02/13 07:12:37;;;;;;;97.75;21.73;;;-1.60;1.00;;;;;;5072849;28;20206;-63
2023/02/13 07:15:06;;;;;;;111.70;24.33;;;-1.60;1.00;;;;;;5072774;28;20736;-63
2023/02/13 07:17:34;;;;;;;99.53;22.15;;;-1.60;1.00;;;;;;5072927;28;20244;-63
2023/02/13 07:20:00;;;;;;;123.30;26.08;;;-1.50;1.00;;;;;;5072422;28;20228;-63
2023/02/13 07:22:27;;;;;;;109.57;23.80;;;-1.50;1.00;;;;;;5072968;28;20205;-61
2023/02/13 07:24:54;;;;;;;122.13;26.92;;;-1.40;1.00;;;;;;5072585;28;20229;-62
2023/02/13 07:27:21;;;;;;;108.20;23.00;;;-1.30;1.00;;;;;;5072865;28;20212;-61
2023/02/13 07:29:47;;;;;;;107.38;23.02;;;-1.20;1.00;;;;;;5072450;28;20351;-61
2023/02/13 07:32:16;;;;;;;151.45;24.27;;;-1.20;1.00;;;;;;5072502;28;20209;-61
2023/02/13 07:34:43;;;;;;;160.90;27.15;;;-1.10;1.00;;;;;;5072458;28;20709;-61
2023/02/13 07:37:10;;;;;;;128.05;28.00;;;-1.20;1.00;;;;;;5072702;28;20577;-61
2023/02/13 07:39:37;;;;;;;124.40;25.55;;;-1.10;1.00;;;;;;5072178;28;20716;-64
2023/02/13 07:42:04;;;;;;;146.45;25.40;;;-1.00;1.00;;;;;;5072945;28;20216;-61
2023/02/13 07:44:31;;;;;;;171.57;25.98;;;-0.80;1.00;;;;;;5072333;28;20226;-62
2023/02/13 07:46:59;;;;;;;128.43;27.38;;;-1.00;1.00;;;;;;5072277;28;20213;-63
2023/02/13 07:49:28;;;;;;;109.57;26.50;;;-0.90;1.00;;;;;;5071507;28;20202;-64
2023/02/13 07:51:57;;;;;;;125.93;26.80;;;-0.80;1.00;;;;;;5072485;28;20205;-62
2023/02/13 07:54:24;;;;;;;111.45;23.92;;;-0.70;1.00;;;;;;5072211;28;20230;-61
2023/02/13 07:56:51;;;;;;;115.20;24.85;;;-0.70;1.00;;;;;;5072163;28;20236;-61
2023/02/13 07:59:17;;;;;;;125.80;27.73;;;-0.80;1.00;;;;;;5071658;28;20217;-61
2023/02/13 08:01:44;;;;;;;126.85;27.15;;;-0.80;1.00;;;;;;5072077;28;20674;-61
2023/02/13 08:04:11;;;;;;;156.15;30.85;;;-0.80;1.00;;;;;;5071985;28;20712;-61
2023/02/13 08:06:40;;;;;;;120.78;26.70;;;-0.70;1.00;;;;;;5072140;28;20207;-61
2023/02/13 08:11:53;;;;;;;124.50;26.75;;;-0.70;1.00;;;;;;5071919;28;20205;-64
2023/02/13 08:14:21;;;;;;;116.50;25.35;;;-0.90;1.00;;;;;;5071986;28;20225;-62
2023/02/13 08:16:47;;;;;;;101.47;26.30;;;-0.80;1.00;;;;;;5072052;28;20201;-63
2023/02/13 08:19:14;;;;;;;110.03;27.75;;;-0.50;1.00;;;;;;5071508;28;20687;-62
2023/02/13 08:21:43;;;;;;;111.43;27.92;;;-0.40;1.00;;;;;;5071907;28;20202;-62
2023/02/13 08:24:10;;;;;;;110.38;26.42;;;-0.50;1.00;;;;;;5071591;28;20233;-62
2023/02/13 08:26:36;;;;;;;102.55;27.35;;;-0.40;1.00;;;;;;5071752;28;20673;-62
2023/02/13 08:29:04;;;;;;;102.72;26.50;;;-0.40;1.00;;;;;;5071571;28;20213;-63
2023/02/13 08:31:30;;;;;;;111.43;28.33;;;-0.30;1.00;;;;;;5071905;28;20202;-63
2023/02/13 08:33:58;;;;;;;101.97;26.38;;;-0.30;1.00;;;;;;5071693;28;20233;-63
2023/02/13 08:36:25;;;;;;;105.10;24.90;;;-0.30;1.00;;;;;;5071694;28;20208;-62
2023/02/13 08:38:53;;;;;;;100.18;26.50;;;-0.30;1.00;;;;;;5071267;28;20594;-63
2023/02/13 08:41:21;;;;;;;101.70;27.13;;;-0.20;1.00;;;;;;5071770;28;20232;-63
2023/02/13 08:43:48;;;;;;;108.90;26.38;;;0.00;1.00;;;;;;5071453;28;20241;-63
2023/02/13 08:46:15;;;;;;;99.70;25.73;;;0.10;1.00;;;;;;5071617;28;20735;-63
2023/02/13 08:48:42;;;;;;;102.45;25.55;;;0.20;1.00;;;;;;5071278;28;20598;-63
2023/02/13 08:51:10;;;;;;;105.38;28.00;;;0.40;1.00;;;;;;5071549;28;20202;-62
2023/02/13 08:53:38;;;;;;;104.72;28.60;;;0.60;1.00;;;;;;5071320;28;20305;-63
2023/02/13 08:56:07;;;;;;;110.03;28.88;;;0.80;1.00;;;;;;5071705;28;20211;-62
2023/02/13 08:58:34;;;;;;;102.38;27.83;;;0.90;1.00;;;;;;5071207;28;20215;-63
2023/02/13 09:01:04;;;;;;;108.15;30.42;;;1.10;1.00;;;;;;5073868;28;20234;-62
2023/02/13 09:03:30;;;;;;;101.30;27.15;;;1.00;1.00;;;;;;5075377;28;20759;-63
2023/02/13 09:05:59;;;;;;;106.47;27.50;;;1.20;1.00;;;;;;5075413;28;20212;-62
2023/02/13 09:08:25;;;;;;;100.60;29.23;;;1.40;1.00;;;;;;5075239;28;20688;-63
2023/02/13 09:10:56;;;;;;;98.07;29.33;;;1.60;1.00;;;;;;5075265;28;20210;-62
2023/02/13 09:13:24;;;;;;;107.50;30.60;;;1.60;1.00;;;;;;5075387;28;20212;-63
2023/02/13 09:15:51;;;;;;;102.47;28.17;;;1.80;1.00;;;;;;5075251;28;20227;-63
2023/02/13 09:18:18;;;;;;;97.82;28.75;;;;;;;;;;5075167;28;20218;-63
2023/02/13 09:20:45;;;;;;;95.50;27.15;;;;;;;;;;5074509;28;20723;-63
2023/02/13 09:23:12;;;;;;;105.78;29.45;;;;;;;;;;5075261;28;20222;-63
2023/02/13 09:25:39;;;;;;;104.90;27.58;;;1.90;1.00;;;;;;5075179;28;20236;-63
2023/02/13 09:28:06;;;;;;;106.10;27.73;;;2.70;1.00;;;;;;5074835;28;20218;-63
2023/02/13 09:30:34;;;;;;;98.35;26.73;;;2.90;1.00;;;;;;5074878;28;20600;-63
2023/02/13 09:33:01;;;;;;;98.80;26.20;;;3.20;1.00;;;;;;5074951;28;20205;-63
2023/02/13 09:35:28;;;;;;;88.82;24.25;;;3.50;1.00;;;;;;5074747;28;20232;-63
2023/02/13 09:37:55;;;;;;;96.35;25.13;;;3.80;1.00;;;;;;5074911;28;20209;-63
2023/02/13 09:40:28;;;;;;;89.55;22.42;;;4.10;1.00;;;;;;5074865;28;20233;-63
2023/02/13 09:43:07;;;;;;;88.30;22.75;;;4.30;1.00;;;;;;5074964;28;20678;-63
2023/02/13 09:45:36;;;;;;;84.00;21.17;;;4.60;1.00;;;;;;5074549;28;20246;-63
2023/02/13 09:48:04;;;;;;;86.55;21.55;;;4.90;1.00;;;;;;5074465;28;20669;-63
2023/02/13 09:50:33;;;;;;;84.20;19.80;;;5.30;1.00;;;;;;5074458;28;20212;-63
2023/02/13 09:53:01;;;;;;;80.88;18.35;;;5.60;1.00;;;;;;5074706;28;20586;-63
2023/02/13 09:55:36;;;;;;;76.97;17.55;;;5.60;1.00;;;;;;5074465;28;20225;-63
2023/02/13 09:58:06;;;;;;;72.83;14.90;;;;;;;;;;5074337;28;20259;-63
2023/02/13 10:00:35;;;;;;;69.80;12.67;;;;;;;;;;5074242;28;20489;-63
2023/02/13 10:03:14;;;;;;;72.03;13.30;;;;;;;;;;5074554;28;20467;-63
2023/02/13 10:05:46;;;;;;;69.93;11.70;;;;;;;;;;5074492;28;20471;-63
2023/02/13 10:08:18;;;;;;;67.03;11.37;;;;;;;;;;5074229;28;20456;-63
2023/02/13 10:10:51;;;;;;;70.60;12.07;;;;;;;;;;5073965;28;20444;-63
2023/02/13 10:13:30;;;;;;;66.20;10.60;;;;;;;;;;5073300;28;20936;-63
2023/02/13 10:16:02;;;;;;;68.50;11.40;;;;;;;;;;5074285;28;20831;-63
2023/02/13 10:18:35;;;;;;;67.83;12.00;;;;;;;;;;5073993;28;20462;-63
2023/02/13 10:21:04;;;;;;;71.03;11.87;;;;;;;;;;5073910;28;20475;-63
2023/02/13 10:23:33;;;;;;;69.57;12.50;;;;;;;;;;5073989;28;20455;-63
2023/02/13 10:26:02;;;;;;;66.40;8.60;;;;;;;;;;5073865;28;20448;-63
2023/02/13 10:28:35;;;;;;;67.80;11.27;;;;;;;;;;5073723;28;20956;-63
2023/02/13 10:31:06;;;;;;;69.10;11.80;;;;;;;;;;5073883;28;20450;-63
2023/02/13 10:33:35;;;;;;;69.77;12.33;;;;;;;;;;5073630;28;20447;-63
2023/02/13 10:36:05;;;;;;;68.07;11.43;;;;;;;;;;5074175;28;20467;-63
2023/02/13 10:38:33;;;;;;;68.27;11.87;;;;;;;;;;5073702;28;20444;-63
2023/02/13 10:41:05;;;;;;;68.20;10.20;;;;;;;;;;5073755;28;20557;-63
2023/02/13 10:43:39;;;;;;;66.60;10.53;;;;;;;;;;5073591;28;20452;-63
2023/02/13 10:46:13;;;;;;;70.37;11.10;;;;;;;;;;5073455;28;20501;-63
2023/02/13 10:48:56;;;;;;;68.80;12.20;;;;;;;;;;5073366;28;20469;-63
2023/02/13 10:51:28;;;;;;;67.67;12.00;;;;;;;;;;5073565;28;20496;-63
2023/02/13 10:54:00;;;;;;;71.00;12.00;;;;;;;;;;5073328;28;20843;-63
2023/02/13 10:56:31;;;;;;;68.27;11.70;;;;;;;;;;5073305;28;20503;-63
2023/02/13 10:59:16;;;;;;;69.30;12.77;;;;;;;;;;5073177;28;20452;-63
2023/02/13 11:01:48;;;;;;;67.53;11.20;;;;;;;;;;5072983;28;20554;-63
2023/02/13 11:04:17;;;;;;;66.60;10.50;;;;;;;;;;5073280;28;20483;-63
2023/02/13 11:06:51;;;;;;;67.67;12.30;;;;;;;;;;5073121;28;20466;-64
2023/02/13 11:09:18;;;;;;;67.40;11.33;;;;;;;;;;5073033;28;20455;-64
2023/02/13 11:11:45;;;;;;;68.93;12.60;;;5.90;1.00;;;;;;5073368;28;20447;-61
2023/02/13 11:14:15;;;;;;;68.40;12.80;;;11.00;99.90;;;;;;5072891;28;20471;-63
2023/02/13 11:16:48;;;;;;;65.70;10.80;;;;;;;;;;5072844;28;20453;-63
2023/02/13 11:19:18;;;;;;;69.37;12.10;;;;;;;;;;5072586;28;20462;-63
2023/02/13 11:21:46;;;;;;;68.07;11.90;;;;;;;;;;5073091;28;20471;-63
2023/02/13 11:24:19;;;;;;;65.90;10.53;;;;;;;;;;5072529;28;21010;-64
2023/02/13 11:26:51;;;;;;;66.00;11.03;;;;;;;;;;5072833;28;20456;-63
2023/02/13 11:29:21;;;;;;;68.00;12.80;;;;;;;;;;5072518;28;20447;-63
2023/02/13 11:32:01;;;;;;;69.47;12.50;;;;;;;;;;5072637;28;20447;-63
2023/02/13 11:34:31;;;;;;;67.40;12.63;;;;;;;;;;5072699;28;20483;-63
2023/02/13 11:37:15;;;;;;;68.80;13.50;;;11.10;99.90;;;;;;5072496;28;20461;-64
2023/02/13 11:39:44;;;;;;;69.10;12.63;;;14.30;99.90;;;;;;5072174;28;20453;-64
2023/02/13 11:42:14;;;;;;;67.93;12.30;;;13.10;99.90;;;;;;5072243;28;20478;-63
2023/02/13 11:44:42;;;;;;;68.57;12.43;;;12.50;99.90;;;;;;5072486;28;20478;-61
2023/02/13 11:47:09;;;;;;;69.27;13.50;;;12.70;99.90;;;;;;5072215;28;20962;-63
2023/02/13 11:49:38;;;;;;;67.00;12.33;;;12.80;99.90;;;;;;5072078;28;20448;-63
2023/02/13 11:52:06;;;;;;;67.80;12.63;;;;;;;;;;5072384;28;20447;-63
2023/02/13 11:54:35;;;;;;;70.07;13.67;;;13.80;99.90;;;;;;5072087;28;20470;-61
2023/02/13 11:57:15;;;;;;;67.77;12.40;;;12.80;99.90;;;;;;5072574;28;20452;-61
2023/02/13 11:59:44;;;;;;;66.30;11.50;;;13.70;99.90;;;;;;5071820;28;20943;-63
2023/02/13 12:02:17;;;;;;;67.57;12.10;;;13.80;99.90;;;;;;5071958;28;20482;-63
2023/02/13 12:04:46;;;;;;;69.07;13.10;;;;;;;;;;5072354;28;20935;-63
2023/02/13 12:07:15;;;;;;;68.20;13.23;;;;;;;;;;5071978;28;20976;-61
2023/02/13 12:09:42;;;;;;;67.80;12.20;;;;;;;;;;5071760;28;20447;-63
2023/02/13 12:12:15;;;;;;;67.37;12.10;;;;;;;;;;5071989;28;20474;-64
2023/02/13 12:14:44;;;;;;;68.40;11.80;;;;;;;;;;5072008;28;20466;-64
2023/02/13 12:17:13;;;;;;;64.87;11.13;;;;;;;;;;5071996;28;20447;-61
2023/02/13 12:19:43;;;;;;;66.07;11.20;;;16.40;99.90;;;;;;5071507;28;20505;-61
2023/02/13 12:22:28;;;;;;;63.93;10.43;;;17.70;99.90;;;;;;5071663;28;20760;-61
2023/02/13 12:25:13;;;;;;;64.23;10.23;;;17.00;99.90;;;;;;5071563;28;20521;-64
2023/02/13 12:27:48;;;;;;;64.47;10.47;;;15.30;99.90;;;;;;5071820;28;20448;-61
2023/02/13 12:30:58;;;;;;;63.77;9.80;;;16.00;99.90;;;;;;5071347;28;20541;-63
2023/02/13 12:33:47;;;;;;;64.60;10.20;;;17.20;99.90;;;;;;5071791;28;20952;-61
2023/02/13 12:36:18;;;;;;;63.77;10.17;;;17.30;99.90;;;;;;5071248;28;20451;-63
2023/02/13 12:38:59;;;;;;;63.17;9.83;;;15.20;99.90;;;;;;5071284;28;20458;-63
2023/02/13 12:41:33;;;;;;;63.00;9.50;;;15.60;99.90;;;;;;5071823;28;20498;-63
2023/02/13 12:44:08;;;;;;;62.07;8.10;;;;;;;;;;5071726;28;20969;-62
2023/02/13 12:46:42;;;;;;;61.87;8.27;;;19.30;99.90;;;;;;5071628;28;20457;-62
2023/02/13 12:49:25;;;;;;;60.83;7.40;;;19.80;99.90;;;;;;5071212;28;20456;-62
2023/02/13 12:52:05;;;;;;;61.27;7.80;;;17.50;99.90;;;;;;5071701;28;20439;-62
2023/02/13 12:54:47;;;;;;;61.67;8.00;;;19.00;99.90;;;;;;5071545;28;20471;-62
2023/02/13 12:57:30;;;;;;;61.80;8.10;;;19.30;99.90;;;;;;5071444;28;20451;-62
2023/02/13 13:00:15;;;;;;;61.87;8.07;;;17.20;99.90;;;;;;5071304;28;20452;-62
2023/02/13 13:02:57;;;;;;;62.30;8.40;;;;;;;;;;5071338;28;20489;-62
2023/02/13 13:05:28;;;;;;;62.10;8.50;;;;;;;;;;5071469;28;20471;-62
2023/02/13 13:08:11;;;;;;;62.70;8.83;;;;;;;;;;5071276;28;20447;-62
2023/02/13 13:11:00;;;;;;;61.73;7.43;;;17.70;99.90;;;;;;5071330;28;20452;-62
2023/02/13 13:13:39;;;;;;;62.70;8.40;;;16.40;99.90;;;;;;5071447;28;20529;-62
2023/02/13 13:16:10;;;;;;;61.93;8.30;;;;;;;;;;5071299;28;20465;-62
2023/02/13 13:18:41;;;;;;;63.70;8.33;;;;;;;;;;5070848;28;20470;-62
2023/02/13 13:21:16;;;;;;;61.93;8.30;;;;;;;;;;5071117;28;20494;-62
2023/02/13 13:23:47;;;;;;;61.50;7.77;;;;;;;;;;5071122;28;20458;-62
2023/02/13 13:26:23;;;;;;;61.93;8.50;;;;;;;;;;5071223;28;20448;-62
2023/02/13 13:28:53;;;;;;;60.70;7.13;;;;;;;;;;5070822;28;20451;-62
2023/02/13 13:31:25;;;;;;;61.67;7.80;;;19.80;99.90;;;;;;5070970;28;20512;-62
2023/02/13 13:33:52;;;;;;;63.47;8.03;;;19.90;99.90;;;;;;5071230;28;20320;-62
2023/02/13 13:36:27;;;;;;;61.47;8.07;;;21.20;99.90;;;;;;5071165;28;20451;-62
2023/02/13 13:39:01;;;;;;;64.90;8.57;;;21.20;99.90;;;;;;5070628;28;20959;-62
2023/02/13 13:41:41;;;;;;;61.70;7.60;;;21.50;99.90;;;;;;5071222;28;20483;-63
2023/02/13 13:44:25;;;;;;;63.23;8.20;;;19.10;99.90;;;;;;5070883;28;20471;-62
2023/02/13 13:46:59;;;;;;;61.20;7.90;;;18.10;99.90;;;;;;5071467;28;20827;-62
2023/02/13 13:49:35;;;;;;;62.53;8.20;;;20.50;99.90;;;;;;5074200;28;20823;-62